Tiempo atmosférico en la estación meteorológica de Lliria, València/Valencia (180 m.)



Fecha
DESCASC
Temp. máxima en grados centígrados (hora)
DESCASC
Temp. mínima en grados centígrados (hora)
DESCASC
Temp. media en grados centígrados
DESCASC
Racha de viento máxima en m/sg (hora)
DESCASC
Velocidad máxima media en intervalos de 10 minutos(hora)
DESCASC
Precipitaciones diarias en mm
DESCASC
Precipitaciones de 00:00 a 06:00 en mm
DESCASC
Precipitaciones de 06:00 a 12:00 en mm
DESCASC
Precipitaciones de 12:00 a 18:00 en mm
DESCASC
Precipitaciones de 18:00 a 24:00 en mm
DESCASC
31-03-2020 15.3 (17:40) 6.5 (04:00) 10.9 8.33 (20:10) 4.17 (19:10) 26 7.8 16.8 1.2 0.2
29-03-2020 23.3 (18:00) 5.7 (00:00) 14.5 8.06 (18:20) 4.17 (18:30) 0 0 0 0 0
28-03-2020 17.4 (14:00) 3 (00:00) 10.2 6.11 (12:10) 3.61 (15:30) 0 0 0 0 0
27-03-2020 10.4 (16:30) 3.6 (00:00) 7 4.17 (10:50) 2.5 (10:50) 5.4 0 2.6 2.8 0
26-03-2020 15.9 (15:10) 3.7 (00:00) 9.8 12.5 (11:20) 8.06 (13:00) 0 0 0 0 0
25-03-2020 10.5 (11:50) 5.5 (00:00) 8 5.83 (13:10) 3.61 (13:10) 2 0 0.4 1.6 0
24-03-2020 13.7 (12:50) 9.4 (00:00) 11.5 11.39 (07:40) 6.39 (13:00) 1 0.6 0.2 0 0.2
23-03-2020 16.4 (15:30) 10.3 (00:00) 13.3 8.33 (15:30) 4.72 (17:00) 5 3.4 0.6 0 1
22-03-2020 16.1 (15:10) 9.5 (05:40) 12.8 7.78 (17:10) 4.72 (17:40) 4.4 2.2 0.2 0.2 1.8
21-03-2020 13.7 (13:00) 6.6 (00:00) 10.1 4.17 (14:50) 2.78 (05:50) 0 0 0 0 0
20-03-2020 15.9 (11:30) 8.9 (00:00) 12.4 7.78 (15:50) 5.28 (15:30) 0 0 0 0 0
19-03-2020 17.3 (15:10) 6.9 (00:00) 12.1 8.33 (15:50) 5.56 (15:50) 0 0 0 0 0
18-03-2020 18.7 (13:50) 8.7 (00:00) 13.7 8.61 (15:10) 5 (14:30) 0 0 0 0 0
17-03-2020 15 (15:30) 9 (00:00) 12 7.78 (16:10) 3.33 (16:00) 31 17.4 11.2 2.4 0
16-03-2020 13.5 (00:10) 7.8 (00:00) 10.7 11.11 (14:30) 6.94 (14:30) 13.6 3.4 6.6 2.8 0.8
15-03-2020 19.7 (14:30) 7.6 (00:00) 13.7 8.61 (15:10) 5.28 (15:10) 0 0 0 0 0
14-03-2020 21 (14:10) 7.8 (00:00) 14.4 7.5 (15:00) 4.44 (15:00) 0 0 0 0 0
13-03-2020 20.7 (13:30) 8.5 (03:40) 14.6 11.39 (14:20) 6.39 (15:00) 0 0 0 0 0
12-03-2020 25.5 (15:00) 8.8 (00:00) 17.2 6.39 (16:40) 4.72 (16:30) 0 0 0 0 0
11-03-2020 27.4 (13:10) 8.4 (00:00) 17.9 7.78 (15:20) 5 (14:40) 0 0 0 0 0
10-03-2020 20.4 (17:30) 7.8 (00:00) 14.1 8.61 (01:30) 4.17 (01:30) 0 0 0 0 0
09-03-2020 22.5 (16:20) 5.6 (00:00) 14 11.39 (17:10) 6.11 (17:40) 0 0 0 0 0
08-03-2020 23.8 (14:40) 6.2 (00:00) 15 9.44 (15:40) 5.83 (15:20) 0 0 0 0 0
07-03-2020 19.4 (16:30) 5.8 (00:00) 12.6 14.72 (15:30) 8.89 (15:30) 0 0 0 0 0
06-03-2020 17.6 (12:40) 6.4 (00:00) 12 16.39 (14:50) 9.72 (14:50) 0 0 0 0 0
05-03-2020 21.3 (13:40) 9.1 (00:00) 15.2 17.78 (13:50) 10.28 (14:10) 0 0 0 0 0
04-03-2020 24.2 (16:00) 14.9 (05:20) 19.6 12.5 (15:10) 7.78 (15:20) 0 0 0 0 0

Gráficas

Temp. máximas Temp. mínimas Temp. medias Precipitaciones Rachas de viento máximas Velocidades máximas media en intervalos de 10 minutos

Datos horarios

Fecha y hora oficial Temperatura (ºC) Velocidad del viento (km/h) Dirección del viento Racha (km/h) Dirección de racha Precipitación (mm) Presión (hPa) Tendencia (hPa) Humedad (%)
2020-04-02 23:00:00 10.6 4 Oeste 8 Oeste 0.6 -- -- 95
2020-04-02 22:00:00 10.8 2 Oeste 6 Sur 0.4 -- -- 94
2020-04-02 21:00:00 11 4 Sur 8 Sur 0.2 -- -- 93
2020-04-02 20:00:00 11.1 5 Sudeste 17 Sudeste 1 -- -- 92
2020-04-02 19:00:00 11.4 13 Sudeste 26 Sudeste 0.8 -- -- 90
2020-04-02 18:00:00 12.3 15 Sudeste 25 Sudeste 0.2 -- -- 87
2020-04-02 17:00:00 12.3 12 Sudeste 30 Este 1 -- -- 87
2020-04-02 16:00:00 13.8 11 Este 30 Sudeste 0.4 -- -- 80
2020-04-02 15:00:00 17.5 16 Sudeste 29 Este 0 -- -- 62
2020-04-02 14:00:00 17.7 9 Sur 21 Sur 0 -- -- 61
2020-04-02 13:00:00 15.8 5 Sur 14 Sur 0 -- -- 63
2020-04-02 12:00:00 13.6 2 Sudoeste 8 Sudeste 0 -- -- 75
2020-04-02 11:00:00 12.8 4 Sudeste 9 Este 0 -- -- 80
2020-04-02 10:00:00 11.8 3 Sudeste 5 Este 0 -- -- 85
2020-04-02 09:00:00 10.5 2 Nordeste 6 Norte 0 -- -- 92
2020-04-02 08:00:00 9.8 3 Norte 6 Norte 0 -- -- 94
2020-04-02 07:00:00 10.2 0 Calma 5 Norte 0 -- -- 92
2020-04-02 06:00:00 10.1 4 Nordeste 8 Este 0 -- -- 91
2020-04-02 05:00:00 10 4 Este 7 Este 0 -- -- 89
2020-04-02 04:00:00 10.5 3 Sudoeste 13 Sudoeste 0 -- -- 85
2020-04-02 03:00:00 11.5 5 Sur 11 Sur 0 -- -- 80
2020-04-02 02:00:00 11.6 2 Sur 10 Oeste 0 -- -- 82
2020-04-02 01:00:00 11.7 2 Oeste 12 Sudoeste 0 -- -- 85
2020-04-02 00:00:00 11.9 6 Sudoeste 15 Sur 0 -- -- 82
2020-04-01 23:00:00 12.1 5 Sudoeste 10 Sudoeste 0 -- -- 86
2020-04-01 22:00:00 12.9 6 Sudoeste 18 Sudoeste 0 -- -- 82
2020-04-01 21:00:00 13.4 10 Sur 19 Sur 0 -- -- 78
2020-04-01 20:00:00 15 12 Sur 21 Sudeste 0 -- -- 74
2020-04-01 19:00:00 16.3 16 Sur 30 Sur 0 -- -- 67
2020-04-01 18:00:00 18.2 21 Sudeste 33 Sudeste 0 -- -- 63
2020-04-01 17:00:00 20.2 18 Sudeste 28 Sudeste 0 -- -- 58
2020-04-01 16:00:00 19.8 18 Sudeste 28 Sudeste 0 -- -- 62
2020-04-01 15:00:00 19.4 13 Este 24 Este 0 -- -- 63
2020-04-01 14:00:00 20.1 8 Sur 14 Sur 0 -- -- 53
2020-04-01 13:00:00 18.6 6 Este 13 Nordeste 0 -- -- 58
2020-04-01 12:00:00 17.5 5 Norte 16 Norte 0 -- -- 60
2020-04-01 11:00:00 15.5 5 Noroeste 10 Noroeste 0 -- -- 74
2020-04-01 10:00:00 12.5 7 Noroeste 17 Noroeste 0 -- -- 90
2020-04-01 09:00:00 10.9 4 Norte 16 Sudoeste 0 -- -- 94
2020-04-01 08:00:00 10.9 9 Norte 13 Oeste 2.2 -- -- 95
2020-04-01 07:00:00 10.8 7 Noroeste 17 Oeste 3.2 -- -- 96
2020-04-01 06:00:00 10.8 10 Noroeste 14 Noroeste 2.6 -- -- 96
2020-04-01 05:00:00 10.8 8 Noroeste 13 Oeste 0.4 -- -- 96
2020-04-01 04:00:00 10.8 7 Noroeste 11 Noroeste 2.6 -- -- 96
2020-04-01 03:00:00 10.9 3 Oeste 11 Sur 1.8 -- -- 95
2020-04-01 02:00:00 11.1 5 Sudoeste 11 Sur 1.6 -- -- 94
2020-04-01 01:00:00 11.9 0 Calma 14 Nordeste 3 -- -- 90
2020-04-01 00:00:00 12.5 6 Nordeste 15 Este 0 -- -- 79
2020-03-31 23:00:00 12 4 Oeste 7 Norte 0 -- -- 85
2020-03-31 22:00:00 12.7 7 Nordeste 18 Nordeste 0 -- -- 77
2020-03-31 21:00:00 12.7 8 Nordeste 30 Nordeste 0 -- -- 76
2020-03-31 20:00:00 13.4 10 Este 25 Este 0 -- -- 74
2020-03-31 19:00:00 14.1 13 Nordeste 22 Norte 0.2 -- -- 71
2020-03-31 18:00:00 15.2 6 Nordeste 14 Este 0 -- -- 69
2020-03-31 17:00:00 15.1 8 Nordeste 18 Nordeste 0 -- -- 74
2020-03-31 16:00:00 14.3 11 Norte 22 Norte 0 -- -- 77
2020-03-31 15:00:00 13.2 7 Noroeste 18 Norte 0 -- -- 83
2020-03-31 14:00:00 11 3 Oeste 9 Oeste 0 -- -- 95
2020-03-31 13:00:00 9.7 4 Noroeste 10 Noroeste 1.2 -- -- 97
2020-03-31 12:00:00 8.9 6 Noroeste 12 Oeste 1.4 -- -- 96
2020-03-31 11:00:00 8.2 5 Noroeste 11 Oeste 3.8 -- -- 97
2020-03-31 10:00:00 7.6 6 Noroeste 12 Noroeste 2.4 -- -- 96
2020-03-31 09:00:00 7.2 3 Noroeste 8 Oeste 3.8 -- -- 96
2020-03-31 08:00:00 7.1 3 Oeste 7 Noroeste 3 -- -- 96
2020-03-31 07:00:00 6.9 5 Noroeste 7 Noroeste 2.4 -- -- 95
2020-03-31 06:00:00 6.8 3 Oeste 9 Oeste 0 -- -- 95
2020-03-31 05:00:00 6.6 4 Noroeste 6 Noroeste 0.6 -- -- 95
2020-03-31 04:00:00 6.5 2 Oeste 8 Oeste 0.8 -- -- 95
2020-03-31 03:00:00 6.7 3 Oeste 4 Oeste 2.2 -- -- 95
2020-03-31 02:00:00 6.8 0 Calma 2 Sudoeste 3 -- -- 94
2020-03-31 01:00:00 7 0 Calma 6 Norte 1.2 -- -- 92
2020-03-31 00:00:00 7.2 3 Norte 8 Nordeste 1 -- -- 92
2020-03-30 23:00:00 7.5 5 Norte 8 Noroeste 0.4 -- -- 87
2020-03-30 22:00:00 7.9 3 Noroeste 6 Oeste 1 -- -- 93
2020-03-30 21:00:00 8.3 3 Sudoeste 6 Noroeste 1.8 -- -- 91
2020-03-30 20:00:00 9.1 4 Oeste 8 Sudoeste 1 -- -- 90
2020-03-30 19:00:00 9.5 0 Calma 12 Nordeste 0 -- -- 83
2020-03-30 18:00:00 9.4 8 Nordeste 16 Nordeste 0.2 -- -- 82
2020-03-30 17:00:00 11.2 6 Nordeste 11 Nordeste 0 -- -- 77
2020-03-30 16:00:00 11.6 5 Sudeste 12 Sudeste 0 -- -- 72
2020-03-30 15:00:00 11.6 8 Sudeste 16 Sur 0 -- -- 75
2020-03-30 14:00:00 11.9 11 Sudeste 19 Sudeste 0.2 -- -- 75
2020-03-30 13:00:00 12.5 7 Sur 13 Sur 0 -- -- 75
2020-03-30 12:00:00 13.2 8 Sur 18 Sur 0 -- -- 70
2020-03-30 11:00:00 13.1 8 Sur 14 Sudoeste 0 -- -- 74
2020-03-30 10:00:00 11.8 3 Sudoeste 8 Sudoeste 0 -- -- 80
2020-03-30 09:00:00 9.6 0 Calma 6 Noroeste 0 -- -- 90
2020-03-30 08:00:00 9.1 3 Norte 4 Norte 0 -- -- 86
2020-03-30 07:00:00 9 3 Norte 5 Noroeste 0 -- -- 87
2020-03-30 06:00:00 8.5 4 Norte 6 Oeste 0 -- -- 91
2020-03-30 05:00:00 9.9 0 Calma 7 Norte 0 -- -- 84
2020-03-30 04:00:00 10.9 2 Nordeste 12 Oeste 0 -- -- 77
2020-03-30 03:00:00 11.4 4 Sudoeste 12 Noroeste 0 -- -- 83
2020-03-30 02:00:00 11.4 3 Norte 7 Sudoeste 0 -- -- 85
2020-03-30 01:00:00 11.9 0 Calma 8 Noroeste 0 -- -- 86
2020-03-30 00:00:00 12.6 4 Noroeste 10 Norte 0 -- -- 79
2020-03-29 23:00:00 14.7 5 Noroeste 13 Norte 0 -- -- 64
2020-03-29 22:00:00 14.8 7 Norte 9 Norte 0 -- -- 71
2020-03-29 21:00:00 15.5 2 Norte 12 Nordeste 0 -- -- 63
2020-03-29 20:00:00 17 7 Este 22 Este 0 -- -- 54
2020-03-29 19:00:00 18.6 13 Este 29 Sudeste 0 -- -- 52
2020-03-29 18:00:00 23.3 7 Sur 24 Sudoeste 0 -- -- 34
2020-03-29 17:00:00 22.9 12 Sur 24 Sudeste 0 -- -- 34
2020-03-29 16:00:00 22.2 11 Sur 28 Sudoeste 0 -- -- 35
2020-03-29 15:00:00 22.1 8 Sur 22 Sudeste 0 -- -- 35
2020-03-29 14:00:00 21.4 10 Sur 21 Sudeste 0 -- -- 33
2020-03-29 13:00:00 20.4 4 Sudeste 13 Sudoeste 0 -- -- 38
2020-03-29 12:00:00 19.2 5 Sudoeste 17 Noroeste 0 -- -- 40
2020-03-29 11:00:00 15.5 12 Noroeste 22 Noroeste 0 -- -- 54
2020-03-29 10:00:00 12.1 12 Noroeste 19 Noroeste 0 -- -- 60
2020-03-29 09:00:00 8.9 12 Noroeste 20 Oeste 0 -- -- 71
2020-03-29 08:00:00 6.8 10 Noroeste 19 Noroeste 0 -- -- 80
2020-03-29 07:00:00 6.9 10 Noroeste 17 Noroeste 0 -- -- 81
2020-03-29 06:00:00 6.4 8 Noroeste 16 Noroeste 0 -- -- 85
2020-03-29 05:00:00 6.5 8 Noroeste 18 Norte 0 -- -- 86
2020-03-29 03:00:00 6.2 10 Noroeste 13 Noroeste 0 -- -- 89
2020-03-29 01:00:00 6.1 3 Noroeste 8 Noroeste 0 -- -- 89
2020-03-29 00:00:00 7 5 Norte 11 Noroeste 0 -- -- 86
2020-03-28 23:00:00 7 6 Noroeste 14 Noroeste 0 -- -- 89
2020-03-28 22:00:00 6.6 4 Noroeste 10 Noroeste 0 -- -- 92
2020-03-28 21:00:00 7.5 4 Noroeste 7 Norte 0 -- -- 89
2020-03-28 20:00:00 9.5 3 Este 5 Sudeste 0 -- -- 82
2020-03-28 19:00:00 14 4 Sudeste 8 Sudeste 0 -- -- 61
2020-03-28 18:00:00 14.3 4 Sudeste 13 Sudeste 0 -- -- 59
2020-03-28 17:00:00 15.8 9 Sudeste 14 Sudeste 0 -- -- 49
2020-03-28 16:00:00 15.1 11 Sudeste 20 Sudeste 0 -- -- 53
2020-03-28 15:00:00 15.3 10 Sur 21 Sudeste 0 -- -- 53
2020-03-28 14:00:00 17.4 7 Sur 20 Sur 0 -- -- 44
2020-03-28 13:00:00 16.5 8 Sudeste 22 Este 0 -- -- 47
2020-03-28 12:00:00 15.4 5 Este 10 Sudeste 0 -- -- 47
2020-03-28 11:00:00 14.2 4 Sur 14 Oeste 0 -- -- 48
2020-03-28 10:00:00 10.5 6 Oeste 10 Oeste 0 -- -- 65
2020-03-28 09:00:00 7.5 7 Noroeste 18 Noroeste 0 -- -- 75
2020-03-28 08:00:00 5.7 8 Noroeste 14 Noroeste 0 -- -- 82
2020-03-28 07:00:00 4.9 9 Noroeste 15 Noroeste 0 -- -- 85
2020-03-28 06:00:00 4.2 9 Noroeste 13 Noroeste 0 -- -- 88
2020-03-28 05:00:00 3.1 9 Noroeste 14 Noroeste 0 -- -- 90
2020-03-28 04:00:00 3 9 Noroeste 13 Noroeste 0 -- -- 90
2020-03-28 03:00:00 3.9 8 Noroeste 14 Noroeste 0 -- -- 91
2020-03-28 02:00:00 4.4 5 Noroeste 10 Noroeste 0 -- -- 92
2020-03-28 01:00:00 5.2 2 Norte 10 Noroeste 0 -- -- 93
2020-03-28 00:00:00 6.2 3 Norte 8 Noroeste 0 -- -- 91
2020-03-27 23:00:00 6.7 5 Noroeste 9 Norte 0 -- -- 92
2020-03-27 22:00:00 7.3 7 Norte 10 Norte 0 -- -- 89
2020-03-27 21:00:00 7.8 5 Noroeste 9 Noroeste 0 -- -- 93
2020-03-27 20:00:00 8.4 0 Calma 6 Noroeste 0 -- -- 89
2020-03-27 19:00:00 9.6 2 Noroeste 4 Oeste 0 -- -- 86
2020-03-27 18:00:00 10.1 2 Sudoeste 9 Oeste 0 -- -- 80
2020-03-27 17:00:00 10.3 5 Sudoeste 8 Sudoeste 0 -- -- 79
2020-03-27 16:00:00 10.1 4 Oeste 10 Noroeste 0 -- -- 79
2020-03-27 15:00:00 9.3 4 Oeste 9 Noroeste 0.4 -- -- 87
2020-03-27 14:00:00 8.3 3 Norte 12 Este 1.4 -- -- 87
2020-03-27 13:00:00 8.3 8 Sudeste 12 Sudeste 1 -- -- 88
2020-03-27 12:00:00 8 6 Nordeste 12 Sudeste 0.8 -- -- 90
2020-03-27 11:00:00 7.7 6 Sudoeste 15 Sudeste 0.2 -- -- 91
2020-03-27 10:00:00 7.6 2 Norte 7 Noroeste 0.4 -- -- 89
2020-03-27 09:00:00 7 3 Norte 9 Norte 1 -- -- 91
2020-03-27 08:00:00 6 0 Calma 6 Noroeste 0.2 -- -- 92
2020-03-27 07:00:00 5.3 4 Noroeste 8 Oeste 0 -- -- 93
2020-03-27 06:00:00 4.5 5 Noroeste 9 Noroeste 0 -- -- 94
2020-03-27 05:00:00 3.8 3 Noroeste 9 Noroeste 0 -- -- 93
2020-03-27 04:00:00 4.2 4 Noroeste 9 Noroeste 0 -- -- 94
2020-03-27 03:00:00 3.9 3 Norte 5 Norte 0 -- -- 92
2020-03-27 02:00:00 4.6 2 Oeste 8 Norte 0 -- -- 91
2020-03-27 01:00:00 4.3 4 Norte 9 Sur 0 -- -- 94
2020-03-27 00:00:00 5.1 3 Noroeste 11 Norte 0 -- -- 91
2020-03-26 23:00:00 5.4 4 Norte 8 Noroeste 0 -- -- 91
2020-03-26 22:00:00 5.8 0 Calma 7 Sudoeste 0 -- -- 89
2020-03-26 21:00:00 7.9 6 Sudeste 15 Sudeste 0 -- -- 81
2020-03-26 20:00:00 9.1 8 Sur 36 Sur 0 -- -- 77
2020-03-26 19:00:00 10.9 12 Sudeste 23 Sudeste 0 -- -- 68
2020-03-26 18:00:00 13.5 14 Nordeste 38 Nordeste 0 -- -- 41
2020-03-26 17:00:00 14.3 17 Nordeste 36 Norte 0 -- -- 41
2020-03-26 16:00:00 14.7 18 Norte 41 Norte 0 -- -- 38
2020-03-26 15:00:00 15.4 13 Norte 36 Noroeste 0 -- -- 40
2020-03-26 14:00:00 14 20 Noroeste 45 Norte 0 -- -- 49
2020-03-26 13:00:00 15.1 29 Norte 45 Norte 0 -- -- 40
2020-03-26 12:00:00 14 18 Norte 45 Norte 0 -- -- 43
2020-03-26 11:00:00 14.2 19 Norte 42 Norte 0 -- -- 43
2020-03-26 10:00:00 13.1 16 Norte 30 Noroeste 0 -- -- 46
2020-03-26 09:00:00 10.1 4 Noroeste 28 Nordeste 0 -- -- 68
2020-03-26 08:00:00 4.4 2 Nordeste 8 Norte 0 -- -- 95
2020-03-26 07:00:00 4 4 Norte 8 Noroeste 0 -- -- 96
2020-03-26 06:00:00 4 3 Noroeste 7 Oeste 0 -- -- 94
2020-03-26 05:00:00 4.8 0 Calma 6 Norte 0 -- -- 96
2020-03-26 04:00:00 4.8 2 Norte 9 Noroeste 0 -- -- 96
2020-03-26 03:00:00 4.6 3 Noroeste 9 Noroeste 0 -- -- 96
2020-03-26 02:00:00 4.7 4 Noroeste 8 Noroeste 0 -- -- 95
2020-03-26 01:00:00 5.5 4 Noroeste 9 Noroeste 0 -- -- 97
2020-03-26 00:00:00 5.5 0 Calma 8 Noroeste 0 -- -- 95
2020-03-25 23:00:00 6 4 Noroeste 5 Noroeste 0 -- -- 93
2020-03-25 22:00:00 6.8 2 Oeste 3 Oeste 0 -- -- 93
2020-03-25 21:00:00 7.8 2 Noroeste 5 Oeste 0 -- -- 89
2020-03-25 20:00:00 8.3 2 Oeste 6 Sudoeste 0 -- -- 88
2020-03-25 19:00:00 8.6 5 Sudoeste 8 Sudoeste 0 -- -- 82
2020-03-25 18:00:00 9 3 Sur 5 Sur 0 -- -- 79
2020-03-25 17:00:00 9 0 Calma 8 Norte 0 -- -- 75
2020-03-25 16:00:00 8.5 7 Nordeste 12 Sudeste 0.2 -- -- 83
2020-03-25 15:00:00 8.6 9 Sudeste 15 Sudeste 0.2 -- -- 81
2020-03-25 14:00:00 8.8 8 Sudeste 21 Sudeste 1.2 -- -- 86
2020-03-25 13:00:00 9.7 12 Sudeste 17 Sudeste 0 -- -- 81
2020-03-25 12:00:00 10.5 3 Este 6 Este 0 -- -- 74
2020-03-25 11:00:00 10 2 Oeste 4 Oeste 0.2 -- -- 79
2020-03-25 10:00:00 9.4 2 Oeste 6 Norte 0 -- -- 83
2020-03-25 09:00:00 8.7 3 Norte 5 Norte 0.2 -- -- 86
2020-03-25 08:00:00 8.3 0 Calma 6 Noroeste 0 -- -- 92
2020-03-25 07:00:00 8.4 5 Noroeste 9 Noroeste 0 -- -- 88
2020-03-25 06:00:00 8.6 5 Noroeste 13 Norte 0 -- -- 84
2020-03-25 05:00:00 9.1 6 Norte 15 Nordeste 0 -- -- 80
2020-03-25 04:00:00 9.4 4 Norte 16 Norte 0 -- -- 77
2020-03-25 03:00:00 9.2 9 Norte 14 Norte 0 -- -- 80
2020-03-25 02:00:00 9.2 4 Norte 18 Este 0 -- -- 81
2020-03-25 01:00:00 9.1 4 Oeste 7 Oeste 0 -- -- 81
2020-03-25 00:00:00 9.4 4 Noroeste 14 Este 0.2 -- -- 81
2020-03-24 23:00:00 10 5 Nordeste 12 Nordeste 0 -- -- 82
2020-03-24 22:00:00 10.3 6 Nordeste 25 Nordeste 0 -- -- 77
2020-03-24 21:00:00 10.4 3 Nordeste 29 Este 0 -- -- 83
2020-03-24 20:00:00 11.4 12 Nordeste 24 Este 0 -- -- 74
2020-03-24 19:00:00 11.5 8 Nordeste 19 Nordeste 0 -- -- 77
2020-03-24 18:00:00 11.9 9 Nordeste 22 Este 0 -- -- 76
2020-03-24 17:00:00 12.2 14 Nordeste 25 Nordeste 0 -- -- 75
2020-03-24 16:00:00 12.4 10 Nordeste 34 Nordeste 0 -- -- 74
2020-03-24 15:00:00 13 15 Nordeste 30 Este 0 -- -- 70
2020-03-24 14:00:00 13 14 Nordeste 31 Nordeste 0 -- -- 70
2020-03-24 13:00:00 13.4 23 Nordeste 38 Nordeste 0 -- -- 69
2020-03-24 12:00:00 12.5 13 Nordeste 37 Nordeste 0 -- -- 74
2020-03-24 11:00:00 13 15 Nordeste 38 Este 0 -- -- 72
2020-03-24 10:00:00 13 18 Este 40 Este 0 -- -- 74
2020-03-24 09:00:00 12.7 14 Nordeste 35 Nordeste 0 -- -- 73
2020-03-24 08:00:00 12.5 17 Este 41 Nordeste 0 -- -- 73
2020-03-24 07:00:00 12.2 15 Nordeste 34 Nordeste 0.2 -- -- 79
2020-03-24 06:00:00 12.8 17 Nordeste 37 Este 0 -- -- 78
2020-03-24 05:00:00 12.8 16 Este 31 Este 0 -- -- 79
2020-03-24 04:00:00 12.7 14 Este 26 Este 0 -- -- 79
2020-03-24 03:00:00 12.5 14 Este 30 Nordeste 0 -- -- 80
2020-03-24 02:00:00 12.5 16 Nordeste 28 Nordeste 0 -- -- 85
2020-03-24 01:00:00 12.3 12 Nordeste 27 Este 0.6 -- -- 89
2020-03-24 00:00:00 12.8 10 Nordeste 22 Este 0 -- -- 85
2020-03-23 23:00:00 12.5 8 Nordeste 20 Este 0.4 -- -- 86
2020-03-23 22:00:00 12.2 6 Este 16 Este 0.6 -- -- 88
2020-03-23 21:00:00 13.2 5 Este 28 Nordeste 0 -- -- 80
2020-03-23 20:00:00 13.5 10 Este 19 Este 0 -- -- 78
2020-03-23 19:00:00 13.8 8 Este 21 Este 0 -- -- 79
2020-03-23 18:00:00 14.6 8 Este 25 Este 0 -- -- 74
2020-03-23 17:00:00 14.7 17 Nordeste 24 Nordeste 0 -- -- 75
2020-03-23 16:00:00 15.8 13 Este 30 Este 0 -- -- 67
2020-03-23 15:00:00 15.8 9 Este 20 Nordeste 0 -- -- 66
2020-03-23 14:00:00 14.6 12 Nordeste 21 Nordeste 0 -- -- 74
2020-03-23 13:00:00 14.4 10 Este 26 Sudeste 0 -- -- 82
2020-03-23 12:00:00 15.3 6 Este 17 Sudeste 0 -- -- 75
2020-03-23 11:00:00 14.1 9 Nordeste 21 Nordeste 0 -- -- 78
2020-03-23 10:00:00 13 6 Nordeste 15 Este 0.4 -- -- 84
2020-03-23 09:00:00 12.3 4 Norte 7 Norte 0.2 -- -- 91
2020-03-23 08:00:00 10.8 3 Nordeste 5 Este 0 -- -- 95
2020-03-23 07:00:00 10.5 0 Calma 6 Nordeste 0 -- -- 94
2020-03-23 06:00:00 10.7 2 Nordeste 7 Este 0 -- -- 93
2020-03-23 05:00:00 10.8 0 Calma 6 Norte 0 -- -- 93
2020-03-23 04:00:00 10.8 0 Calma 4 Norte 0 -- -- 95
2020-03-23 03:00:00 10.6 4 Noroeste 7 Noroeste 0.2 -- -- 96
2020-03-23 02:00:00 10.7 5 Norte 8 Norte 1.2 -- -- 96
2020-03-23 01:00:00 10.8 3 Noroeste 8 Sudoeste 2 -- -- 96
2020-03-23 00:00:00 10.9 3 Oeste 10 Noroeste 0.8 -- -- 95
2020-03-22 23:00:00 11.1 3 Oeste 7 Noroeste 1 -- -- 93
2020-03-22 22:00:00 11.6 5 Oeste 7 Noroeste 0 -- -- 90
2020-03-22 21:00:00 12 0 Calma 12 Sudeste 0 -- -- 85
2020-03-22 20:00:00 12.3 6 Sudeste 16 Sudeste 0 -- -- 81
2020-03-22 19:00:00 12.8 12 Sudeste 20 Sudeste 0 -- -- 79
2020-03-22 18:00:00 13.9 14 Sudeste 28 Sudeste 0 -- -- 75
2020-03-22 17:00:00 14.2 15 Sudeste 23 Sudeste 0 -- -- 72
2020-03-22 16:00:00 14.7 5 Este 12 Este 0 -- -- 70
2020-03-22 15:00:00 15.3 4 Este 11 Sur 0.2 -- -- 68
2020-03-22 14:00:00 14.4 5 Sur 13 Sudeste 0 -- -- 69
2020-03-22 13:00:00 14 5 Este 14 Nordeste 0 -- -- 72
2020-03-22 12:00:00 14.8 8 Este 17 Este 0 -- -- 70
2020-03-22 11:00:00 12.7 3 Sudoeste 5 Sur 0 -- -- 78
2020-03-22 10:00:00 11.7 2 Norte 4 Norte 0 -- -- 87
2020-03-22 09:00:00 10.3 0 Calma 4 Sudoeste 0 -- -- 96
2020-03-22 08:00:00 9.7 0 Calma 4 Norte 0 -- -- 96
2020-03-22 07:00:00 9.5 0 Calma 4 Noroeste 0.2 -- -- 96
2020-03-22 06:00:00 9.5 3 Norte 6 Noroeste 1 -- -- 95
2020-03-22 05:00:00 9.6 0 Calma 6 Noroeste 0.2 -- -- 95
2020-03-22 04:00:00 9.7 0 Calma 4 Noroeste 0 -- -- 94
2020-03-22 03:00:00 9.9 3 Noroeste 5 Norte 0 -- -- 94
2020-03-22 02:00:00 10.2 4 Norte 5 Norte 0.6 -- -- 93
2020-03-22 01:00:00 10.7 2 Oeste 12 Noroeste 0.4 -- -- 90
2020-03-22 00:00:00 10.9 5 Noroeste 12 Noroeste 0 -- -- 86
2020-03-21 23:00:00 11.4 4 Noroeste 7 Noroeste 0 -- -- 89
2020-03-21 22:00:00 11.3 3 Noroeste 4 Noroeste 0 -- -- 90
2020-03-21 21:00:00 11.8 0 Calma 6 Sur 0 -- -- 87
2020-03-21 20:00:00 12.1 5 Sur 11 Sur 0 -- -- 85
2020-03-21 19:00:00 12.5 4 Sur 13 Sudeste 0 -- -- 83
2020-03-21 18:00:00 12.7 6 Sudeste 12 Sudeste 0 -- -- 80
2020-03-21 17:00:00 12.9 6 Sudeste 10 Este 0 -- -- 78
2020-03-21 16:00:00 13 5 Sur 13 Sudeste 0 -- -- 75
2020-03-21 15:00:00 13.3 9 Sur 15 Sur 0 -- -- 73
2020-03-21 14:00:00 13.4 9 Sudoeste 14 Sur 0 -- -- 71
2020-03-21 13:00:00 13.7 6 Sur 12 Sudoeste 0 -- -- 68
2020-03-21 12:00:00 13.1 5 Sur 8 Sur 0 -- -- 67
2020-03-21 11:00:00 12.4 3 Sudeste 5 Sur 0 -- -- 77
2020-03-21 10:00:00 11.1 0 Calma 5 Oeste 0 -- -- 84
2020-03-21 09:00:00 9.8 0 Calma 8 Noroeste 0 -- -- 90
2020-03-21 08:00:00 8.3 5 Noroeste 13 Noroeste 0 -- -- 91
2020-03-21 07:00:00 7 7 Noroeste 12 Noroeste 0 -- -- 94
2020-03-21 06:00:00 6.9 9 Noroeste 14 Noroeste 0 -- -- 94
2020-03-21 05:00:00 7.1 4 Noroeste 10 Noroeste 0 -- -- 94
2020-03-21 04:00:00 7.9 7 Noroeste 10 Noroeste 0 -- -- 96
2020-03-21 03:00:00 7.6 8 Noroeste 10 Noroeste 0 -- -- 95
2020-03-21 02:00:00 8.8 5 Noroeste 8 Noroeste 0 -- -- 95
2020-03-21 01:00:00 9.1 2 Noroeste 9 Noroeste 0 -- -- 95
2020-03-21 00:00:00 9.8 4 Noroeste 6 Noroeste 0 -- -- 95
2020-03-20 23:00:00 8.9 6 Noroeste 7 Noroeste 0 -- -- 94
2020-03-20 22:00:00 9.7 3 Oeste 4 Oeste 0 -- -- 93
2020-03-20 21:00:00 10.7 0 Calma 5 Norte 0 -- -- 87
2020-03-20 20:00:00 11.6 3 Este 10 Sudeste 0 -- -- 84
2020-03-20 19:00:00 13.1 7 Sudeste 18 Sudeste 0 -- -- 75
2020-03-20 18:00:00 14.6 9 Sudeste 16 Sudeste 0 -- -- 68
2020-03-20 17:00:00 13.5 8 Sur 25 Sudeste 0 -- -- 82
2020-03-20 16:00:00 14.7 17 Sudeste 28 Sudeste 0 -- -- 68
2020-03-20 15:00:00 15.1 14 Sudeste 24 Sudeste 0 -- -- 64
2020-03-20 14:00:00 14.4 12 Este 26 Este 0 -- -- 70
2020-03-20 13:00:00 15.2 10 Este 22 Este 0 -- -- 65
2020-03-20 12:00:00 15.5 8 Sur 15 Sudeste 0 -- -- 65
2020-03-20 11:00:00 15 4 Sudoeste 10 Sudoeste 0 -- -- 68
2020-03-20 10:00:00 13.4 5 Sudoeste 9 Sudoeste 0 -- -- 77
2020-03-20 09:00:00 11.1 2 Oeste 6 Noroeste 0 -- -- 92
2020-03-20 08:00:00 10 0 Calma 9 Noroeste 0 -- -- 95
2020-03-20 07:00:00 9.5 4 Noroeste 5 Noroeste 0 -- -- 95
2020-03-20 06:00:00 9.8 2 Noroeste 4 Norte 0 -- -- 94
2020-03-20 05:00:00 10 2 Norte -- -- 0 -- -- 94
2020-03-20 04:00:00 10 0 Calma 4 Noroeste 0 -- -- 94
2020-03-20 03:00:00 10.2 0 Calma -- -- 0 -- -- 94
2020-03-20 02:00:00 9.9 0 Calma 4 Nordeste 0 -- -- 94
2020-03-20 01:00:00 10 0 Calma 8 Norte 0 -- -- 91
2020-03-20 00:00:00 10.6 3 Nordeste 8 Norte 0 -- -- 92
2020-03-19 23:00:00 10.3 3 Norte 6 Norte 0 -- -- 96
2020-03-19 22:00:00 9.3 2 Noroeste 3 Noroeste 0 -- -- 94
2020-03-19 21:00:00 10.4 2 Norte 9 Sudeste 0 -- -- 92
2020-03-19 20:00:00 11.9 4 Sudeste 17 Sur 0 -- -- 89
2020-03-19 19:00:00 13.1 10 Sudeste 23 Sudeste 0 -- -- 85
2020-03-19 18:00:00 14.1 15 Sudeste 28 Sudeste 0 -- -- 79
2020-03-19 17:00:00 15 17 Sudeste 29 Sudeste 0 -- -- 75
2020-03-19 16:00:00 16.3 20 Sudeste 30 Sudeste 0 -- -- 71
2020-03-19 15:00:00 17.2 17 Sudeste 28 Sudeste 0 -- -- 65
2020-03-19 14:00:00 16.9 13 Sur 23 Sur 0 -- -- 65
2020-03-19 13:00:00 16.7 5 Sur 15 Sudeste 0 -- -- 63
2020-03-19 12:00:00 15.6 7 Sur 13 Sudeste 0 -- -- 63
2020-03-19 11:00:00 14.4 3 Sur 5 Sudoeste 0 -- -- 66
2020-03-19 10:00:00 11.6 0 Calma 4 Sudeste 0 -- -- 85
2020-03-19 09:00:00 9.7 0 Calma 5 Noroeste 0 -- -- 90
2020-03-19 08:00:00 8 3 Norte 9 Noroeste 0 -- -- 94
2020-03-19 07:00:00 7.6 5 Noroeste 10 Noroeste 0 -- -- 93
2020-03-19 06:00:00 7.4 4 Noroeste 7 Noroeste 0 -- -- 97
2020-03-19 05:00:00 7.1 0 Calma 4 Noroeste 0 -- -- 95
2020-03-19 04:00:00 7.5 3 Noroeste 8 Noroeste 0 -- -- 96
2020-03-19 03:00:00 8.1 6 Noroeste 8 Noroeste 0 -- -- 96
2020-03-19 02:00:00 8.7 3 Noroeste 5 Norte 0 -- -- 96
2020-03-19 01:00:00 8.8 3 Noroeste 6 Noroeste 0 -- -- 96
2020-03-19 00:00:00 9.1 4 Noroeste 8 Noroeste 0 -- -- 95
2020-03-18 23:00:00 9.6 4 Noroeste 6 Noroeste 0 -- -- 94
2020-03-18 22:00:00 10.7 3 Sudoeste 9 Sudoeste 0 -- -- 92
2020-03-18 21:00:00 11.2 4 Sudoeste 9 Sudoeste 0 -- -- 90
2020-03-18 20:00:00 12.2 6 Sudoeste 15 Sur 0 -- -- 84
2020-03-18 19:00:00 13.4 8 Sur 19 Sur 0 -- -- 79
2020-03-18 18:00:00 14.7 13 Sur 22 Sudeste 0 -- -- 73
2020-03-18 17:00:00 16.3 15 Sudeste 24 Sudeste 0 -- -- 71
2020-03-18 16:00:00 17.8 17 Sudeste 31 Sudeste 0 -- -- 65
2020-03-18 15:00:00 17.6 16 Sur 27 Sur 0 -- -- 64
2020-03-18 14:00:00 18.7 12 Sudeste 23 Sudeste 0 -- -- 58
2020-03-18 13:00:00 18.4 9 Este 23 Este 0 -- -- 50
2020-03-18 12:00:00 16.7 7 Sur 15 Sur 0 -- -- 63
2020-03-18 11:00:00 15.6 5 Sur 12 Sudoeste 0 -- -- 67
2020-03-18 10:00:00 13.9 3 Sudoeste 5 Sudoeste 0 -- -- 74
2020-03-18 09:00:00 10.7 0 Calma 5 Noroeste 0 -- -- 95
2020-03-18 08:00:00 9.1 4 Noroeste 5 Noroeste 0 -- -- 96
2020-03-18 07:00:00 8.9 3 Oeste 5 Oeste 0 -- -- 95
2020-03-18 06:00:00 9.3 4 Noroeste 9 Noroeste 0 -- -- 95
2020-03-18 05:00:00 9.3 8 Noroeste 10 Noroeste 0 -- -- 95
2020-03-18 04:00:00 9.6 5 Noroeste 8 Oeste 0 -- -- 95
2020-03-18 03:00:00 9.6 4 Noroeste 8 Oeste 0 -- -- 95
2020-03-18 02:00:00 9.8 2 Noroeste 8 Oeste 0 -- -- 94
2020-03-18 01:00:00 9.9 3 Oeste 8 Noroeste 0 -- -- 94
2020-03-18 00:00:00 10.7 3 Oeste 14 Este 0 -- -- 90
2020-03-17 23:00:00 11.1 3 Noroeste 12 Nordeste 0 -- -- 91
2020-03-17 22:00:00 13.2 6 Nordeste 14 Nordeste 0 -- -- 78
2020-03-17 21:00:00 13.2 0 Calma 23 Nordeste 0 -- -- 86
2020-03-17 20:00:00 13.4 5 Nordeste 11 Este 0 -- -- 87
2020-03-17 19:00:00 14.1 2 Oeste 8 Este 0 -- -- 90
2020-03-17 18:00:00 14.9 6 Este 22 Este 0 -- -- 80
2020-03-17 17:00:00 14.8 6 Este 28 Este 0 -- -- 83
2020-03-17 16:00:00 14.9 12 Este 23 Este 0 -- -- 84
2020-03-17 15:00:00 14.4 4 Este 8 Este 0.2 -- -- 94
2020-03-17 14:00:00 13.9 2 Oeste 6 Oeste 0.4 -- -- 97
2020-03-17 13:00:00 12.8 5 Noroeste 12 Sur 1.8 -- -- 97
2020-03-17 12:00:00 12 5 Noroeste 12 Noroeste 2.6 -- -- 97
2020-03-17 11:00:00 11.9 3 Noroeste 6 Noroeste 0.8 -- -- 98
2020-03-17 10:00:00 11 2 Sudoeste 6 Sur 1.6 -- -- 98
2020-03-17 09:00:00 10.6 0 Calma 4 Noroeste 2.4 -- -- 98
2020-03-17 08:00:00 10.4 2 Noroeste 6 Sudoeste 2.8 -- -- 98
2020-03-17 07:00:00 10.2 5 Sudoeste 8 Sudoeste 1 -- -- 98
2020-03-17 06:00:00 10.1 0 Calma 4 Noroeste 2 -- -- 97
2020-03-17 05:00:00 10 0 Calma 8 Sur 4 -- -- 97
2020-03-17 04:00:00 10 2 Oeste 8 Noroeste 2.2 -- -- 97
2020-03-17 03:00:00 9.5 5 Noroeste 7 Noroeste 4.2 -- -- 97
2020-03-17 02:00:00 9.3 2 Norte 8 Sur 2.6 -- -- 96
2020-03-17 01:00:00 9.1 5 Oeste 9 Noroeste 2.4 -- -- 95
2020-03-17 00:00:00 9.1 0 Calma 6 Sudoeste 0.8 -- -- 93
2020-03-16 23:00:00 8.8 3 Oeste 8 Oeste 0 -- -- 91
2020-03-16 22:00:00 9 3 Oeste 14 Noroeste 0 -- -- 88
2020-03-16 21:00:00 8.9 6 Noroeste 16 Noroeste 0 -- -- 84
2020-03-16 20:00:00 8.4 10 Noroeste 27 Oeste 0 -- -- 86
2020-03-16 19:00:00 8.7 11 Oeste 27 Oeste 0 -- -- 83
2020-03-16 18:00:00 8.2 15 Oeste 26 Oeste 0 -- -- 84
2020-03-16 17:00:00 7.9 15 Oeste 30 Oeste 0 -- -- 87
2020-03-16 16:00:00 8.6 10 Noroeste 35 Oeste 0.4 -- -- 85
2020-03-16 15:00:00 8 22 Oeste 40 Noroeste 1.2 -- -- 88
2020-03-16 14:00:00 9.6 10 Oeste 31 Oeste 1 -- -- 88
2020-03-16 13:00:00 9.3 14 Oeste 26 Oeste 0.2 -- -- 88
2020-03-16 12:00:00 9.8 11 Noroeste 22 Noroeste 0.6 -- -- 89
2020-03-16 11:00:00 9.9 13 Oeste 34 Sudeste 5.6 -- -- 90
2020-03-16 10:00:00 12.9 24 Sudeste 37 Sudeste 0.2 -- -- 93
2020-03-16 09:00:00 12.5 13 Este 24 Sudeste 0 -- -- 93
2020-03-16 08:00:00 12.1 6 Este 21 Este 0 -- -- 93
2020-03-16 07:00:00 12.1 7 Sudeste 19 Sudeste 0.2 -- -- 94
2020-03-16 06:00:00 12.2 5 Sudeste 14 Este 0.6 -- -- 93
2020-03-16 05:00:00 12.4 6 Este 21 Este 0.8 -- -- 93
2020-03-16 04:00:00 12.5 7 Este 14 Este 1.8 -- -- 93
2020-03-16 03:00:00 12.7 0 Calma 14 Nordeste 0.2 -- -- 89
2020-03-16 02:00:00 12.9 4 Nordeste 10 Este 0 -- -- 87
2020-03-16 01:00:00 13.3 3 Sudeste 9 Nordeste 0 -- -- 78
2020-03-16 00:00:00 13.4 5 Este 9 Este 0 -- -- 75
2020-03-15 23:00:00 13.5 4 Nordeste 9 Nordeste 0 -- -- 74
2020-03-15 22:00:00 13.6 5 Nordeste 7 Nordeste 0 -- -- 77
2020-03-15 21:00:00 13.4 4 Nordeste 11 Este 0 -- -- 79
2020-03-15 20:00:00 13.3 6 Este 17 Sudeste 0 -- -- 81
2020-03-15 19:00:00 14.1 8 Sudeste 20 Sudeste 0 -- -- 77
2020-03-15 18:00:00 15.1 13 Este 22 Este 0 -- -- 74
2020-03-15 17:00:00 16 14 Sudeste 31 Este 0 -- -- 71
2020-03-15 16:00:00 18.2 18 Sudeste 31 Sudeste 0 -- -- 57
2020-03-15 15:00:00 19.6 17 Sudeste 28 Sudeste 0 -- -- 56
2020-03-15 14:00:00 19.2 12 Sudeste 21 Sudeste 0 -- -- 53
2020-03-15 13:00:00 17.6 5 Sudeste 18 Sudeste 0 -- -- 61
2020-03-15 12:00:00 16.7 4 Sudoeste 31 Este 0 -- -- 65
2020-03-15 11:00:00 14.8 2 Sur 8 Sudeste 0 -- -- 72
2020-03-15 10:00:00 13.7 0 Calma 6 Sudeste 0 -- -- 78
2020-03-15 09:00:00 11.7 3 Sur 8 Sudeste 0 -- -- 90
2020-03-15 08:00:00 10.9 0 Calma 5 Norte 0 -- -- 94
2020-03-15 07:00:00 10.2 0 Calma 6 Noroeste 0 -- -- 94
2020-03-15 06:00:00 8.8 0 Calma 5 Noroeste 0 -- -- 96
2020-03-15 05:00:00 8 3 Norte 5 Norte 0 -- -- 94
2020-03-15 04:00:00 8.3 3 Norte 6 Norte 0 -- -- 90
2020-03-15 03:00:00 9.7 4 Norte 10 Noroeste 0 -- -- 88
2020-03-15 02:00:00 10.2 6 Noroeste 10 Noroeste 0 -- -- 89
2020-03-15 01:00:00 10.3 2 Norte 13 Noroeste 0 -- -- 90
2020-03-15 00:00:00 11.1 6 Noroeste 9 Noroeste 0 -- -- 90
2020-03-14 23:00:00 12.4 5 Noroeste 6 Noroeste 0 -- -- 88
2020-03-14 22:00:00 12.2 0 Calma 5 Oeste 0 -- -- 91
2020-03-14 21:00:00 12.5 2 Sudeste 8 Este 0 -- -- 86
2020-03-14 20:00:00 13.5 3 Este 13 Sudeste 0 -- -- 82
2020-03-14 19:00:00 15 6 Este 19 Sudeste 0 -- -- 75
2020-03-14 18:00:00 17.2 15 Sudeste 23 Este 0 -- -- 64
2020-03-14 17:00:00 19.7 15 Sudeste 24 Sudeste 0 -- -- 56
2020-03-14 16:00:00 20.7 11 Sudeste 25 Sudeste 0 -- -- 51
2020-03-14 15:00:00 20.8 16 Sudeste 27 Sudeste 0 -- -- 52
2020-03-14 14:00:00 20.6 6 Este 18 Sudeste 0 -- -- 49
2020-03-14 13:00:00 20.2 10 Sudeste 20 Sur 0 -- -- 50
2020-03-14 12:00:00 19.2 7 Sudeste 18 Sur 0 -- -- 53
2020-03-14 11:00:00 17.8 10 Sur 16 Sudeste 0 -- -- 57
2020-03-14 10:00:00 15.7 6 Sudeste 12 Sudeste 0 -- -- 65
2020-03-14 09:00:00 12.6 2 Nordeste 13 Noroeste 0 -- -- 74
2020-03-14 08:00:00 9.1 9 Noroeste 12 Noroeste 0 -- -- 84
2020-03-14 07:00:00 8.4 4 Norte 8 Noroeste 0 -- -- 86
2020-03-14 06:00:00 8.7 4 Noroeste 10 Noroeste 0 -- -- 91
2020-03-14 05:00:00 9 7 Noroeste 13 Noroeste 0 -- -- 91
2020-03-14 04:00:00 8.4 3 Norte 6 Noroeste 0 -- -- 90
2020-03-14 03:00:00 9.2 3 Norte 9 Noroeste 0 -- -- 91
2020-03-14 02:00:00 9 7 Noroeste 11 Noroeste 0 -- -- 92
2020-03-14 01:00:00 9.7 7 Noroeste 11 Noroeste 0 -- -- 90
2020-03-14 00:00:00 10.2 8 Noroeste 10 Noroeste 0 -- -- 89
2020-03-13 23:00:00 10.3 5 Noroeste 6 Noroeste 0 -- -- 89
2020-03-13 22:00:00 11.4 2 Norte 7 Noroeste 0 -- -- 86
2020-03-13 21:00:00 12.6 4 Nordeste 5 Nordeste 0 -- -- 81
2020-03-13 20:00:00 12.8 0 Calma 9 Sur 0 -- -- 81
2020-03-13 19:00:00 14.8 5 Sur 16 Sur 0 -- -- 72
2020-03-13 18:00:00 16.2 14 Sur 24 Sur 0 -- -- 67
2020-03-13 17:00:00 17.4 15 Sudeste 30 Sudeste 0 -- -- 61
2020-03-13 16:00:00 18.5 20 Sudeste 35 Sudeste 0 -- -- 57
2020-03-13 15:00:00 19.3 23 Sudeste 41 Sudeste 0 -- -- 54
2020-03-13 14:00:00 20.5 15 Sudeste 32 Sudeste 0 -- -- 51
2020-03-13 13:00:00 19.6 14 Este 28 Este 0 -- -- 50
2020-03-13 12:00:00 19 10 Este 20 Nordeste 0 -- -- 50
2020-03-13 11:00:00 17.6 4 Sudeste 9 Sudeste 0 -- -- 57
2020-03-13 10:00:00 15.8 6 Sur 12 Oeste 0 -- -- 71
2020-03-13 09:00:00 12.6 5 Oeste 14 Oeste 0 -- -- 86
2020-03-13 08:00:00 11.7 6 Noroeste 12 Oeste 0 -- -- 93
2020-03-13 07:00:00 11.5 0 Calma 4 Sudoeste 0 -- -- 94
2020-03-13 06:00:00 11.2 0 Calma 8 Sudoeste 0 -- -- 95
2020-03-13 05:00:00 9.6 3 Noroeste 6 Noroeste 0 -- -- 94
2020-03-13 04:00:00 8.6 2 Norte 8 Noroeste 0 -- -- 94
2020-03-13 03:00:00 8.7 5 Noroeste 6 Noroeste 0 -- -- 94
2020-03-13 02:00:00 9.2 4 Norte 6 Norte 0 -- -- 92
2020-03-13 01:00:00 10.6 2 Norte 8 Norte 0 -- -- 88
2020-03-13 00:00:00 10.4 3 Noroeste 5 Noroeste 0 -- -- 90
2020-03-12 23:00:00 11.6 2 Norte 5 Norte 0 -- -- 87
2020-03-12 22:00:00 11.9 0 Calma 4 Noroeste 0 -- -- 88
2020-03-12 21:00:00 13.2 4 Noroeste 4 Noroeste 0 -- -- 86
2020-03-12 20:00:00 15.2 0 Calma 6 Sur 0 -- -- 80
2020-03-12 19:00:00 17.8 5 Sudeste 10 Sudeste 0 -- -- 68
2020-03-12 18:00:00 19.7 8 Sudeste 18 Este 0 -- -- 57
2020-03-12 17:00:00 21.4 11 Este 23 Sudeste 0 -- -- 56
2020-03-12 16:00:00 25.1 11 Sudeste 18 Sudeste 0 -- -- 43
2020-03-12 15:00:00 25.5 8 Sudeste 20 Sudeste 0 -- -- 43
2020-03-12 14:00:00 24.9 13 Sudeste 20 Sudeste 0 -- -- 44
2020-03-12 13:00:00 24.8 9 Sudeste 15 Sur 0 -- -- 38
2020-03-12 12:00:00 23.2 6 Sur 12 Sudeste 0 -- -- 43
2020-03-12 11:00:00 21.2 3 Nordeste 6 Este 0 -- -- 47
2020-03-12 10:00:00 18.5 2 Este 6 Norte 0 -- -- 53
2020-03-12 09:00:00 14.8 4 Nordeste 6 Norte 0 -- -- 63
2020-03-12 08:00:00 9.5 3 Norte 5 Norte 0 -- -- 83
2020-03-12 07:00:00 9.8 3 Norte 9 Norte 0 -- -- 80
2020-03-12 06:00:00 10 8 Noroeste 12 Noroeste 0 -- -- 80
2020-03-12 05:00:00 11.9 5 Norte 12 Noroeste 0 -- -- 71
2020-03-12 04:00:00 12.1 6 Noroeste 13 Noroeste 0 -- -- 71
2020-03-12 03:00:00 13.2 7 Noroeste 14 Noroeste 0 -- -- 66
2020-03-12 02:00:00 13.7 9 Noroeste 14 Noroeste 0 -- -- 67
2020-03-12 01:00:00 13.8 6 Noroeste 10 Noroeste 0 -- -- 68
2020-03-12 00:00:00 13.2 3 Noroeste 13 Noroeste 0 -- -- 72
2020-03-11 23:00:00 13.2 6 Noroeste 12 Norte 0 -- -- 74
2020-03-11 22:00:00 13.1 5 Noroeste 9 Noroeste 0 -- -- 75
2020-03-11 21:00:00 13.1 6 Noroeste 9 Noroeste 0 -- -- 78
2020-03-11 20:00:00 14.9 2 Norte 6 Sudeste 0 -- -- 70
2020-03-11 19:00:00 18.4 4 Sudeste 12 Sur 0 -- -- 58
2020-03-11 18:00:00 20.7 10 Sudeste 20 Sudeste 0 -- -- 48
2020-03-11 17:00:00 23 12 Sudeste 23 Sudeste 0 -- -- 43
2020-03-11 16:00:00 24.6 17 Sudeste 28 Este 0 -- -- 37
2020-03-11 15:00:00 25.5 17 Sudeste 28 Sudeste 0 -- -- 35
2020-03-11 14:00:00 27.4 13 Sudeste 27 Sudeste 0 -- -- 32
2020-03-11 13:00:00 27.3 12 Sudeste 20 Sudeste 0 -- -- 32
2020-03-11 12:00:00 26.1 8 Sudeste 15 Este 0 -- -- 35
2020-03-11 11:00:00 24.9 7 Sudeste 12 Sudeste 0 -- -- 35
2020-03-11 10:00:00 21.9 5 Sudoeste 10 Noroeste 0 -- -- 41
2020-03-11 09:00:00 17.3 8 Noroeste 13 Noroeste 0 -- -- 54
2020-03-11 08:00:00 12.2 6 Noroeste 15 Noroeste 0 -- -- 65
2020-03-11 07:00:00 9.8 2 Oeste 10 Noroeste 0 -- -- 74
2020-03-11 06:00:00 8.4 3 Norte 8 Norte 0 -- -- 81
2020-03-11 05:00:00 11 7 Norte 10 Norte 0 -- -- 69
2020-03-11 04:00:00 9.9 3 Nordeste 10 Noroeste 0 -- -- 76
2020-03-11 03:00:00 11.9 11 Noroeste 17 Noroeste 0 -- -- 67
2020-03-11 02:00:00 10.4 7 Noroeste 13 Noroeste 0 -- -- 75
2020-03-11 01:00:00 11.1 9 Noroeste 14 Noroeste 0 -- -- 72
2020-03-11 00:00:00 10.1 8 Noroeste 12 Noroeste 0 -- -- 79
2020-03-10 23:00:00 11.6 8 Noroeste 13 Noroeste 0 -- -- 73
2020-03-10 22:00:00 11.9 7 Noroeste 10 Noroeste 0 -- -- 77
2020-03-10 21:00:00 12.4 4 Noroeste 8 Noroeste 0 -- -- 75
2020-03-10 20:00:00 14.1 5 Norte 12 Sudeste 0 -- -- 68
2020-03-10 19:00:00 16.9 8 Sudeste 11 Este 0 -- -- 60
2020-03-10 18:00:00 20.3 0 Calma 4 Sur 0 -- -- 37
2020-03-10 17:00:00 20 0 Calma 10 Norte 0 -- -- 36
2020-03-10 16:00:00 18.9 6 Norte 10 Norte 0 -- -- 37
2020-03-10 15:00:00 18.9 5 Nordeste 9 Nordeste 0 -- -- 37
2020-03-10 14:00:00 18.7 0 Calma 4 Noroeste 0 -- -- 37
2020-03-10 13:00:00 17.9 0 Calma 9 Sudoeste 0 -- -- 37
2020-03-10 12:00:00 18.2 2 Sudoeste 8 Oeste 0 -- -- 37
2020-03-10 11:00:00 16.6 0 Calma 10 Sudeste 0 -- -- 42
2020-03-10 10:00:00 15.3 4 Sudeste 12 Este 0 -- -- 42
2020-03-10 09:00:00 13.2 6 Este 12 Sudeste 0 -- -- 50
2020-03-10 08:00:00 9.1 4 Norte 10 Norte 0 -- -- 62
2020-03-10 07:00:00 8.2 4 Norte 9 Norte 0 -- -- 65
2020-03-10 06:00:00 8.5 2 Norte 9 Noroeste 0 -- -- 63
2020-03-10 05:00:00 10.7 6 Noroeste 13 Noroeste 0 -- -- 51
2020-03-10 04:00:00 12.3 10 Noroeste 22 Oeste 0 -- -- 46
2020-03-10 03:00:00 11.9 6 Oeste 14 Sur 0 -- -- 47
2020-03-10 02:00:00 12.9 13 Sur 31 Norte 0 -- -- 45
2020-03-10 01:00:00 13.6 0 Calma 24 Noroeste 0 -- -- 45
2020-03-10 00:00:00 14.5 12 Sudoeste 19 Sudoeste 0 -- -- 39
2020-03-09 23:00:00 15.9 3 Nordeste 28 Norte 0 -- -- 39
2020-03-09 22:00:00 15.9 8 Norte 20 Noroeste 0 -- -- 39
2020-03-09 21:00:00 16.4 12 Noroeste 21 Noroeste 0 -- -- 38
2020-03-09 20:00:00 16.1 7 Noroeste 16 Norte 0 -- -- 38
2020-03-09 19:00:00 19.1 13 Norte 31 Norte 0 -- -- 32
2020-03-09 18:00:00 20.2 17 Norte 41 Norte 0 -- -- 30
2020-03-09 17:00:00 21.2 18 Norte 33 Norte 0 -- -- 28
2020-03-09 16:00:00 21.8 14 Nordeste 22 Nordeste 0 -- -- 26
2020-03-09 15:00:00 22.2 4 Este 16 Norte 0 -- -- 26
2020-03-09 14:00:00 21.2 6 Oeste 18 Sudoeste 0 -- -- 30
2020-03-09 13:00:00 20.3 5 Sudoeste 20 Sur 0 -- -- 34
2020-03-09 12:00:00 18.6 10 Sudoeste 18 Sudoeste 0 -- -- 36
2020-03-09 11:00:00 17.7 5 Sur 13 Sudoeste 0 -- -- 38
2020-03-09 10:00:00 14.4 6 Sur 10 Sudeste 0 -- -- 52
2020-03-09 09:00:00 11.1 3 Norte 14 Noroeste 0 -- -- 62
2020-03-09 08:00:00 10.2 4 Noroeste 13 Noroeste 0 -- -- 63
2020-03-09 07:00:00 6.8 7 Noroeste 11 Oeste 0 -- -- 75
2020-03-09 06:00:00 6.4 5 Norte 9 Norte 0 -- -- 76
2020-03-09 05:00:00 7.3 2 Nordeste 12 Nordeste 0 -- -- 73
2020-03-09 04:00:00 9.1 5 Noroeste 13 Noroeste 0 -- -- 64
2020-03-09 03:00:00 9.3 8 Norte 16 Nordeste 0 -- -- 60
2020-03-09 02:00:00 9.9 5 Noroeste 23 Noroeste 0 -- -- 61
2020-03-09 01:00:00 12 7 Norte 12 Norte 0 -- -- 50
2020-03-09 00:00:00 9.3 0 Calma 9 Norte 0 -- -- 78
2020-03-08 23:00:00 11.1 6 Norte 12 Noroeste 0 -- -- 69
2020-03-08 22:00:00 12.5 6 Norte 10 Norte 0 -- -- 65
2020-03-08 21:00:00 12.4 5 Norte 8 Noroeste 0 -- -- 65
2020-03-08 20:00:00 12.6 3 Noroeste 5 Noroeste 0 -- -- 67
2020-03-08 19:00:00 14.7 5 Sudeste 14 Sudeste 0 -- -- 52
2020-03-08 18:00:00 16.9 13 Sudeste 25 Sudeste 0 -- -- 47
2020-03-08 17:00:00 18.7 16 Sudeste 29 Sudeste 0 -- -- 43
2020-03-08 16:00:00 21.1 17 Este 34 Este 0 -- -- 36
2020-03-08 15:00:00 23.5 16 Sudeste 28 Este 0 -- -- 26
2020-03-08 14:00:00 22.9 7 Sudeste 18 Sudeste 0 -- -- 26
2020-03-08 13:00:00 21.5 7 Este 15 Sudeste 0 -- -- 29
2020-03-08 12:00:00 19.6 2 Este 10 Sudeste 0 -- -- 33
2020-03-08 11:00:00 18.2 4 Sur 9 Norte 0 -- -- 36
2020-03-08 10:00:00 15.5 8 Noroeste 18 Oeste 0 -- -- 40
2020-03-08 09:00:00 11.3 8 Noroeste 15 Noroeste 0 -- -- 57
2020-03-08 08:00:00 6.2 3 Nordeste 14 Noroeste 0 -- -- 74
2020-03-08 07:00:00 6.9 6 Noroeste 13 Oeste 0 -- -- 73
2020-03-08 06:00:00 8 8 Noroeste 19 Noroeste 0 -- -- 69
2020-03-08 05:00:00 7.4 5 Noroeste 17 Noroeste 0 -- -- 72
2020-03-08 04:00:00 7.1 6 Noroeste 14 Noroeste 0 -- -- 74
2020-03-08 03:00:00 7.8 2 Norte 14 Noroeste 0 -- -- 71
2020-03-08 02:00:00 9.1 7 Noroeste 15 Oeste 0 -- -- 66
2020-03-08 01:00:00 10 7 Noroeste 14 Sudoeste 0 -- -- 63
2020-03-08 00:00:00 11.4 8 Noroeste 29 Nordeste 0 -- -- 59
2020-03-07 23:00:00 15 20 Norte 41 Norte 0 -- -- 46
2020-03-07 22:00:00 13.8 3 Oeste 26 Norte 0 -- -- 49
2020-03-07 21:00:00 13 5 Nordeste 15 Norte 0 -- -- 51
2020-03-07 20:00:00 13.9 8 Norte 19 Norte 0 -- -- 49
2020-03-07 19:00:00 17.1 8 Norte 45 Norte 0 -- -- 39
2020-03-07 18:00:00 18.4 24 Norte 46 Norte 0 -- -- 35
2020-03-07 17:00:00 19.3 22 Norte 46 Norte 0 -- -- 34
2020-03-07 16:00:00 19.1 23 Norte 53 Norte 0 -- -- 34
2020-03-07 15:00:00 18.8 26 Norte 51 Norte 0 -- -- 34
2020-03-07 14:00:00 18.8 20 Norte 46 Norte 0 -- -- 35
2020-03-07 13:00:00 17.1 22 Noroeste 37 Noroeste 0 -- -- 37
2020-03-07 12:00:00 14.3 16 Oeste 24 Oeste 0 -- -- 42
2020-03-07 11:00:00 12.3 8 Noroeste 23 Noroeste 0 -- -- 44
2020-03-07 10:00:00 10.9 9 Oeste 24 Oeste 0 -- -- 46
2020-03-07 09:00:00 9.1 8 Noroeste 20 Oeste 0 -- -- 53
2020-03-07 08:00:00 7.1 8 Oeste 13 Oeste 0 -- -- 58
2020-03-07 07:00:00 6.6 4 Oeste 12 Noroeste 0 -- -- 59
2020-03-07 06:00:00 6.6 2 Norte 8 Norte 0 -- -- 60
2020-03-07 05:00:00 6.5 0 Calma 11 Este 0 -- -- 62
2020-03-07 04:00:00 7.4 2 Sudeste 10 Noroeste 0 -- -- 56
2020-03-07 03:00:00 7.3 4 Noroeste 13 Norte 0 -- -- 55
2020-03-07 02:00:00 8.8 7 Noroeste 13 Oeste 0 -- -- 46
2020-03-07 01:00:00 8.8 4 Norte 12 Norte 0 -- -- 49
2020-03-07 00:00:00 10 3 Norte 31 Noroeste 0 -- -- 40
2020-03-06 23:00:00 11.9 16 Noroeste 37 Norte 0 -- -- 35
2020-03-06 22:00:00 12 10 Noroeste 39 Noroeste 0 -- -- 33
2020-03-06 21:00:00 10.8 7 Oeste 30 Noroeste 0 -- -- 40
2020-03-06 20:00:00 12.8 19 Noroeste 39 Oeste 0 -- -- 33
2020-03-06 19:00:00 13.7 15 Noroeste 50 Norte 0 -- -- 28
2020-03-06 18:00:00 14.9 14 Noroeste 44 Noroeste 0 -- -- 32
2020-03-06 17:00:00 14.6 19 Noroeste 49 Noroeste 0 -- -- 33
2020-03-06 16:00:00 13.8 30 Norte 58 Norte 0 -- -- 37
2020-03-06 15:00:00 17.4 27 Noroeste 59 Noroeste 0 -- -- 24
2020-03-06 14:00:00 17.4 26 Noroeste 55 Noroeste 0 -- -- 26
2020-03-06 13:00:00 17.2 31 Noroeste 54 Noroeste 0 -- -- 27
2020-03-06 12:00:00 17 27 Noroeste 48 Noroeste 0 -- -- 29
2020-03-06 11:00:00 15.6 24 Noroeste 48 Noroeste 0 -- -- 38
2020-03-06 10:00:00 13.7 23 Noroeste 46 Noroeste 0 -- -- 48
2020-03-06 09:00:00 12.5 17 Oeste 44 Oeste 0 -- -- 50
2020-03-06 08:00:00 10.9 19 Oeste 36 Oeste 0 -- -- 52
2020-03-06 07:00:00 11.1 23 Oeste 42 Oeste 0 -- -- 51
2020-03-06 06:00:00 10.8 18 Oeste 28 Oeste 0 -- -- 55
2020-03-06 05:00:00 6.8 5 Noroeste 12 Norte 0 -- -- 73
2020-03-06 04:00:00 7.9 9 Oeste 14 Oeste 0 -- -- 72
2020-03-06 03:00:00 9.5 5 Noroeste 18 Noroeste 0 -- -- 65
2020-03-06 02:00:00 11.3 6 Noroeste 19 Norte 0 -- -- 58
2020-03-06 01:00:00 12.6 10 Noroeste 22 Noroeste 0 -- -- 55
2020-03-06 00:00:00 9.2 5 Oeste 13 Sudoeste 0 -- -- 66
2020-03-05 23:00:00 11.9 3 Noroeste 14 Oeste 0 -- -- 55
2020-03-05 22:00:00 14.7 6 Oeste 18 Oeste 0 -- -- 45
2020-03-05 21:00:00 16.1 11 Oeste 24 Oeste 0 -- -- 41
2020-03-05 20:00:00 16.8 11 Oeste 37 Oeste 0 -- -- 40
2020-03-05 19:00:00 18 20 Noroeste 44 Noroeste 0 -- -- 38
2020-03-05 18:00:00 19.1 27 Noroeste 50 Noroeste 0 -- -- 36
2020-03-05 17:00:00 20.7 22 Oeste 58 Oeste 0 -- -- 43
2020-03-05 16:00:00 20.7 33 Oeste 58 Oeste 0 -- -- 46
2020-03-05 15:00:00 20 36 Oeste 60 Oeste 0 -- -- 48
2020-03-05 14:00:00 21.2 31 Oeste 64 Oeste 0 -- -- 47
2020-03-05 13:00:00 20.1 28 Oeste 63 Oeste 0 -- -- 47
2020-03-05 12:00:00 19.2 27 Oeste 50 Oeste 0 -- -- 48
2020-03-05 11:00:00 18.4 27 Oeste 48 Oeste 0 -- -- 50
2020-03-05 10:00:00 17.6 28 Oeste 44 Oeste 0 -- -- 53
2020-03-05 09:00:00 15.9 19 Oeste 33 Oeste 0 -- -- 59
2020-03-05 08:00:00 15.1 12 Oeste 31 Oeste 0 -- -- 61
2020-03-05 07:00:00 14.9 15 Oeste 36 Oeste 0 -- -- 62
2020-03-05 06:00:00 15.2 18 Oeste 35 Oeste 0 -- -- 61
2020-03-05 05:00:00 15 16 Oeste 28 Noroeste 0 -- -- 62
2020-03-05 04:00:00 14.7 13 Oeste 26 Oeste 0 -- -- 63
2020-03-05 03:00:00 14.3 7 Oeste 17 Oeste 0 -- -- 66
2020-03-05 02:00:00 14.7 8 Oeste 22 Noroeste 0 -- -- 63
2020-03-05 01:00:00 14.3 11 Oeste 18 Oeste 0 -- -- 63
2020-03-05 00:00:00 15.7 14 Oeste 22 Noroeste 0 -- -- 57
2020-03-04 23:00:00 17.1 16 Oeste 31 Oeste 0 -- -- 53
2020-03-04 22:00:00 17.1 10 Noroeste 25 Oeste 0 -- -- 53
2020-03-04 21:00:00 17.8 13 Oeste 26 Noroeste 0 -- -- 48
2020-03-04 20:00:00 19 12 Oeste 33 Oeste 0 -- -- 46
2020-03-04 19:00:00 20.3 15 Noroeste 40 Oeste 0 -- -- 45
2020-03-04 18:00:00 22.6 22 Oeste 45 Oeste 0 -- -- 38
2020-03-04 17:00:00 23.8 23 Oeste 45 Oeste 0 -- -- 37
2020-03-04 16:00:00 24.2 23 Oeste 45 Oeste 0 -- -- 38
2020-03-04 15:00:00 23.6 27 Oeste 44 Oeste 0 -- -- 39
2020-03-04 14:00:00 23.4 21 Oeste 44 Oeste 0 -- -- 42
2020-03-04 13:00:00 22.5 27 Oeste 44 Oeste 0 -- -- 45
2020-03-04 12:00:00 21.8 20 Oeste 36 Oeste 0 -- -- 47
2020-03-04 11:00:00 20 20 Oeste 41 Oeste 0 -- -- 53
2020-03-04 10:00:00 18.9 21 Oeste 37 Oeste 0 -- -- 56
2020-03-04 09:00:00 17.9 16 Oeste 30 Oeste 0 -- -- 61
2020-03-04 08:00:00 16.9 13 Noroeste 37 Noroeste 0 -- -- 62
2020-03-04 07:00:00 16.9 22 Oeste 39 Oeste 0 -- -- 61
2020-03-04 06:00:00 16.2 14 Oeste 21 Oeste 0 -- -- 63
2020-03-04 05:00:00 15.5 5 Sudoeste 28 Noroeste 0 -- -- 60
2020-03-04 04:00:00 16.9 12 Noroeste 29 Oeste 0 -- -- 52
2020-03-04 03:00:00 17.3 13 Oeste 26 Oeste 0 -- -- 53
2020-03-04 02:00:00 17 12 Noroeste 28 Oeste 0 -- -- 57
2020-03-04 01:00:00 16.4 10 Noroeste 30 Noroeste 0 -- -- 58
2020-03-04 00:00:00 16.5 14 Noroeste 27 Oeste 0 -- -- 58